Time;durP1;ratioP1;P1;durP2;ratioP2;P2;SDS_P1;SDS_P2;PMS_P1;PMS_P2;Temp;Humidity;BMP_temperature;BMP_pressure;BME280_temperature;BME280_humidity;BME280_pressure;Samples;Min_cycle;Max_cycle;Signal;HPM_P1;HPM_P2
2023/09/23 00:00:15;;;;;;;;;;;14.30;99.90;;;;;;7320258;19;9322;-81
2023/09/23 00:02:46;;;;;;;;;;;14.30;99.90;;;;;;7319929;19;9264;-81
2023/09/23 00:05:16;;;;;;;;;;;14.20;99.90;;;;;;7321215;19;9170;-81
2023/09/23 00:07:45;;;;;;;;;;;14.10;99.90;;;;;;7319883;19;9731;-81
2023/09/23 00:10:38;;;;;;;;;;;14.20;99.90;;;;;;7320326;19;9513;-81
2023/09/23 00:13:08;;;;;;;;;;;14.20;99.90;;;;;;7320625;19;9502;-81
2023/09/23 00:15:40;;;;;;;;;;;14.10;99.90;;;;;;7321051;19;10434;-81
2023/09/23 00:18:11;;;;;;;;;;;14.10;99.90;;;;;;7319945;19;9246;-82
2023/09/23 00:20:42;;;;;;;;;;;14.10;99.90;;;;;;7318314;19;9311;-81
2023/09/23 00:23:11;;;;;;;;;;;13.90;99.90;;;;;;7319174;19;11178;-81
2023/09/23 00:25:46;;;;;;;;;;;13.90;99.90;;;;;;7320657;19;11376;-81
2023/09/23 00:28:15;;;;;;;;;;;13.80;99.90;;;;;;7321821;19;9457;-82
2023/09/23 00:30:45;;;;;;;;;;;13.80;99.90;;;;;;7318485;19;10273;-81
2023/09/23 00:33:16;;;;;;;;;;;13.70;99.90;;;;;;7320908;19;9426;-81
2023/09/23 00:35:47;;;;;;;;;;;13.80;99.90;;;;;;7321709;19;9459;-81
2023/09/23 00:38:18;;;;;;;;;;;13.90;99.90;;;;;;7318323;19;9463;-81
2023/09/23 00:41:10;;;;;;;;;;;13.90;99.90;;;;;;7318382;19;9234;-81
2023/09/23 00:43:40;;;;;;;;;;;13.90;99.90;;;;;;7320247;19;9377;-81
2023/09/23 00:46:10;;;;;;;;;;;14.00;99.90;;;;;;7319494;19;9331;-81
2023/09/23 00:48:43;;;;;;;;;;;13.90;99.90;;;;;;7320120;19;9253;-81
2023/09/23 00:51:13;;;;;;;;;;;13.90;99.90;;;;;;7317159;19;9302;-81
2023/09/23 00:53:44;;;;;;;;;;;13.80;99.90;;;;;;7319931;19;9118;-81
2023/09/23 00:56:20;;;;;;;;;;;13.80;99.90;;;;;;7318581;19;9207;-81
2023/09/23 00:58:50;;;;;;;;;;;13.80;99.90;;;;;;7318517;19;9274;-81
2023/09/23 01:01:21;;;;;;;;;;;13.80;99.90;;;;;;7319331;19;9249;-81
2023/09/23 01:03:51;;;;;;;;;;;13.80;99.90;;;;;;7318656;19;9313;-80
2023/09/23 01:06:22;;;;;;;;;;;13.60;99.90;;;;;;7319430;19;10497;-81
2023/09/23 01:08:54;;;;;;;;;;;13.50;99.90;;;;;;7319118;19;9980;-81
2023/09/23 01:11:27;;;;;;;;;;;13.50;99.90;;;;;;7319752;19;9229;-80
2023/09/23 01:13:56;;;;;;;;;;;13.50;99.90;;;;;;7319852;19;8944;-81
2023/09/23 01:16:25;;;;;;;;;;;13.50;99.90;;;;;;7324327;19;9245;-80
2023/09/23 01:18:54;;;;;;;;;;;13.50;99.90;;;;;;7322522;19;9183;-81
2023/09/23 01:21:23;;;;;;;;;;;13.70;99.90;;;;;;7326248;19;9120;-80
2023/09/23 01:23:55;;;;;;;;;;;13.70;99.90;;;;;;7325843;19;9247;-80
2023/09/23 01:26:24;;;;;;;;;;;13.80;99.90;;;;;;7326295;19;9206;-80
2023/09/23 01:28:54;;;;;;;;;;;13.80;99.90;;;;;;7325148;19;9160;-81
2023/09/23 01:31:29;;;;;;;;;;;14.10;99.90;;;;;;7326642;19;9470;-80
2023/09/23 01:33:58;;;;;;;;;;;14.00;99.90;;;;;;7327429;19;8996;-80
2023/09/23 01:36:27;;;;;;;;;;;14.10;99.90;;;;;;7327365;19;9144;-79
2023/09/23 01:38:59;;;;;;;;;;;13.90;99.90;;;;;;7326927;19;10170;-80
2023/09/23 01:41:28;;;;;;;;;;;13.90;99.90;;;;;;7327574;19;9218;-79
2023/09/23 01:44:00;;;;;;;;;;;13.80;99.90;;;;;;7326240;19;9491;-80
2023/09/23 01:46:30;;;;;;;;;;;13.90;99.90;;;;;;7323223;19;9771;-80
2023/09/23 01:49:01;;;;;;;;;;;13.80;99.90;;;;;;7324120;19;9305;-80
2023/09/23 01:51:30;;;;;;;;;;;13.80;99.90;;;;;;7325654;19;10563;-80
2023/09/23 01:54:03;;;;;;;;;;;13.90;99.90;;;;;;7326054;19;9270;-80
2023/09/23 01:56:34;;;;;;;;;;;13.80;99.90;;;;;;7325427;19;9459;-80
2023/09/23 01:59:03;;;;;;;;;;;13.80;99.90;;;;;;7325383;19;9158;-80
2023/09/23 02:01:31;;;;;;;;;;;13.80;99.90;;;;;;7325310;19;9493;-80
2023/09/23 02:04:01;;;;;;;;;;;13.90;99.90;;;;;;7324867;19;9226;-80
2023/09/23 02:06:38;;;;;;;;;;;13.90;99.90;;;;;;7324057;19;9332;-80
2023/09/23 02:09:10;;;;;;;;;;;13.90;99.90;;;;;;7324588;19;9315;-80
2023/09/23 02:11:39;;;;;;;;;;;14.10;99.90;;;;;;7324907;19;8944;-80
2023/09/23 02:14:09;;;;;;;;;;;14.00;99.90;;;;;;7323515;19;9300;-80
2023/09/23 02:16:39;;;;;;;;;;;14.00;99.90;;;;;;7321245;19;9268;-80
2023/09/23 02:19:08;;;;;;;;;;;14.00;99.90;;;;;;7324641;19;9242;-80
2023/09/23 02:21:37;;;;;;;;;;;13.90;99.90;;;;;;7324865;19;9560;-80
2023/09/23 02:24:09;;;;;;;;;;;13.80;99.90;;;;;;7323335;19;10475;-80
2023/09/23 02:26:38;;;;;;;;;;;13.90;99.90;;;;;;7323693;19;9217;-80
2023/09/23 02:29:07;;;;;;;;;;;13.90;99.90;;;;;;7322985;19;9148;-80
2023/09/23 02:31:37;;;;;;;;;;;14.00;99.90;;;;;;7324053;19;9179;-81
2023/09/23 02:34:10;;;;;;;;;;;14.00;99.90;;;;;;7324909;19;9439;-80
2023/09/23 02:36:39;;;;;;;;;;;14.00;99.90;;;;;;7322794;19;10336;-80
2023/09/23 02:39:31;;;;;;;;;;;14.00;99.90;;;;;;7322398;19;9227;-80
2023/09/23 02:42:00;;;;;;;;;;;14.00;99.90;;;;;;7323495;19;9465;-80
2023/09/23 02:44:30;;;;;;;;;;;13.90;99.90;;;;;;7320115;19;9301;-80
2023/09/23 02:46:59;;;;;;;;;;;13.90;99.90;;;;;;7322696;19;9428;-80
2023/09/23 02:49:28;;;;;;;;;;;13.90;99.90;;;;;;7324199;19;9234;-80
2023/09/23 02:51:57;;;;;;;;;;;13.90;99.90;;;;;;7324161;19;9396;-80
2023/09/23 02:54:26;;;;;;;;;;;13.90;99.90;;;;;;7323245;19;9391;-80
2023/09/23 02:57:00;;;;;;;;;;;13.80;99.90;;;;;;7322771;19;11737;-81
2023/09/23 02:59:31;;;;;;;;;;;13.70;99.90;;;;;;7323630;19;9579;-80
2023/09/23 03:02:00;;;;;;;;;;;13.70;99.90;;;;;;7322992;19;9269;-80
2023/09/23 03:04:32;;;;;;;;;;;13.70;99.90;;;;;;7323505;19;9444;-80
2023/09/23 03:07:04;;;;;;;;;;;13.80;99.90;;;;;;7323281;19;9175;-81
2023/09/23 03:09:33;;;;;;;;;;;13.70;99.90;;;;;;7324109;19;9303;-80
2023/09/23 03:12:05;;;;;;;;;;;13.70;99.90;;;;;;7320150;19;9243;-80
2023/09/23 03:14:40;;;;;;;;;;;13.70;99.90;;;;;;7321922;19;10385;-80
2023/09/23 03:17:21;;;;;;;;;;;13.70;99.90;;;;;;7323370;19;9246;-80
2023/09/23 03:19:53;;;;;;;;;;;13.80;99.90;;;;;;7323254;19;9465;-80
2023/09/23 03:22:23;;;;;;;;;;;13.70;99.90;;;;;;7321743;19;9343;-80
2023/09/23 03:24:52;;;;;;;;;;;13.70;99.90;;;;;;7321779;19;9221;-80
2023/09/23 03:27:28;;;;;;;;;;;13.70;99.90;;;;;;7323022;19;9210;-80
2023/09/23 03:30:00;;;;;;;;;;;13.60;99.90;;;;;;7320649;19;9349;-80
2023/09/23 03:32:29;;;;;;;;;;;13.50;99.90;;;;;;7322616;19;9293;-80
2023/09/23 03:35:23;;;;;;;;;;;13.50;99.90;;;;;;7320630;19;9541;-80
2023/09/23 03:37:53;;;;;;;;;;;13.40;99.90;;;;;;7318745;19;9476;-80
2023/09/23 03:40:25;;;;;;;;;;;13.30;99.90;;;;;;7318816;19;9327;-80
2023/09/23 03:42:57;;;;;;;;;;;13.30;99.90;;;;;;7321362;19;9238;-80
2023/09/23 03:45:26;;;;;;;;;;;13.20;99.90;;;;;;7321315;19;9339;-80
2023/09/23 03:47:55;;;;;;;;;;;13.10;99.90;;;;;;7320833;19;10421;-80
2023/09/23 03:50:24;;;;;;;;;;;13.00;99.90;;;;;;7321208;19;10764;-80
2023/09/23 03:52:53;;;;;;;;;;;12.80;99.90;;;;;;7321790;19;9242;-80
2023/09/23 03:55:22;;;;;;;;;;;12.80;99.90;;;;;;7321800;19;9528;-80
2023/09/23 03:57:53;;;;;;;;;;;12.70;99.90;;;;;;7322662;19;8996;-80
2023/09/23 04:00:26;;;;;;;;;;;12.70;99.90;;;;;;7322031;19;11308;-80
2023/09/23 04:02:55;;;;;;;;;;;12.50;99.90;;;;;;7321336;19;9317;-80
2023/09/23 04:05:28;;;;;;;;;;;12.50;99.90;;;;;;7321370;19;9253;-80
2023/09/23 04:07:57;;;;;;;;;;;12.40;99.90;;;;;;7322022;19;9160;-80
2023/09/23 04:10:27;;;;;;;;;;;12.40;99.90;;;;;;7316365;19;9301;-80
2023/09/23 04:12:57;;;;;;;;;;;12.40;99.90;;;;;;7321033;19;9443;-80
2023/09/23 04:15:48;;;;;;;;;;;12.30;99.90;;;;;;7319282;19;9642;-80
2023/09/23 04:18:18;;;;;;;;;;;12.20;99.90;;;;;;7321011;19;9171;-80
2023/09/23 04:21:08;;;;;;;;;;;12.30;99.90;;;;;;7319916;19;9242;-80
2023/09/23 04:23:39;;;;;;;;;;;12.30;99.90;;;;;;7320616;19;9253;-80
2023/09/23 04:26:08;;;;;;;;;;;12.30;99.90;;;;;;7320849;19;9483;-80
2023/09/23 04:28:38;;;;;;;;;;;12.30;99.90;;;;;;7316301;19;10143;-80
2023/09/23 04:31:09;;;;;;;;;;;12.20;99.90;;;;;;7319224;19;9285;-80
2023/09/23 04:33:39;;;;;;;;;;;12.30;99.90;;;;;;7321258;19;9453;-80
2023/09/23 04:36:11;;;;;;;;;;;12.20;99.90;;;;;;7320522;19;9482;-80
2023/09/23 04:38:40;;;;;;;;;;;12.10;99.90;;;;;;7316782;19;9303;-80
2023/09/23 04:41:09;;;;;;;;;;;12.00;99.90;;;;;;7319829;19;9171;-80
2023/09/23 04:43:39;;;;;;;;;;;12.00;99.90;;;;;;7320704;19;9110;-80
2023/09/23 04:46:14;;;;;;;;;;;11.90;99.90;;;;;;7318282;19;9084;-80
2023/09/23 04:48:43;;;;;;;;;;;11.90;99.90;;;;;;7319760;19;9284;-80
2023/09/23 04:51:12;;;;;;;;;;;11.90;99.90;;;;;;7325882;19;9258;-80
2023/09/23 04:53:41;;;;;;;;;;;11.90;99.90;;;;;;7326101;19;9259;-79
2023/09/23 04:56:16;;;;;;;;;;;12.00;99.90;;;;;;7327110;19;9418;-80
2023/09/23 04:58:45;;;;;;;;;;;12.10;99.90;;;;;;7324732;19;9304;-80
2023/09/23 05:01:17;;;;;;;;;;;12.10;99.90;;;;;;7323397;19;11108;-80
2023/09/23 05:03:46;;;;;;;;;;;12.10;99.90;;;;;;7326513;19;9521;-80
2023/09/23 05:06:16;;;;;;;;;;;12.20;99.90;;;;;;7322224;19;10155;-80
2023/09/23 05:08:45;;;;;;;;;;;12.20;99.90;;;;;;7325685;19;9140;-80
2023/09/23 05:11:14;;;;;;;;;;;12.30;99.90;;;;;;7326511;19;9194;-80
2023/09/23 05:13:43;;;;;;;;;;;12.30;99.90;;;;;;7325526;19;9238;-80
2023/09/23 05:16:12;;;;;;;;;;;12.30;99.90;;;;;;7325524;19;9166;-80
2023/09/23 05:18:44;;;;;;;;;;;12.30;99.90;;;;;;7326986;19;9243;-80
2023/09/23 05:21:13;;;;;;;;;;;12.30;99.90;;;;;;7326102;19;10235;-80
2023/09/23 05:23:46;;;;;;;;;;;12.10;99.90;;;;;;7326182;19;10143;-80
2023/09/23 05:26:35;;;;;;;;;;;12.10;99.90;;;;;;7324390;19;9427;-80
2023/09/23 05:29:04;;;;;;;;;;;11.90;99.90;;;;;;7325081;19;9595;-80
2023/09/23 05:31:36;;;;;;;;;;;11.80;99.90;;;;;;7323592;19;9832;-80
2023/09/23 05:34:08;;;;;;;;;;;11.70;99.90;;;;;;7325128;19;9542;-80
2023/09/23 05:36:37;;;;;;;;;;;11.70;99.90;;;;;;7323988;19;9528;-80
2023/09/23 05:39:08;;;;;;;;;;;11.70;99.90;;;;;;7325046;19;9253;-80
2023/09/23 05:41:36;;;;;;;;;;;11.80;99.90;;;;;;7325519;19;9203;-80
2023/09/23 05:44:25;;;;;;;;;;;11.90;99.90;;;;;;7322007;19;9225;-80
2023/09/23 05:46:54;;;;;;;;;;;11.90;99.90;;;;;;7323742;19;9202;-80
2023/09/23 05:49:46;;;;;;;;;;;11.90;99.90;;;;;;7323433;19;9245;-80
2023/09/23 05:52:15;;;;;;;;;;;11.90;99.90;;;;;;7323212;19;9235;-80
2023/09/23 05:54:42;;;;;;;;;;;11.90;99.90;;;;;;7324959;19;9212;-80
2023/09/23 05:57:11;;;;;;;;;;;11.90;99.90;;;;;;7325155;19;9339;-80
2023/09/23 05:59:39;;;;;;;;;;;12.00;99.90;;;;;;7325667;19;9283;-80
2023/09/23 06:02:08;;;;;;;;;;;12.10;99.90;;;;;;7321849;19;9287;-80
2023/09/23 06:04:38;;;;;;;;;;;12.10;99.90;;;;;;7321175;19;9261;-80
2023/09/23 06:07:10;;;;;;;;;;;12.10;99.90;;;;;;7324781;19;9400;-80
2023/09/23 06:09:39;;;;;;;;;;;12.10;99.90;;;;;;7324489;19;9297;-80
2023/09/23 06:12:08;;;;;;;;;;;12.10;99.90;;;;;;7324844;19;9499;-80
2023/09/23 06:14:37;;;;;;;;;;;12.20;99.90;;;;;;7324579;19;9630;-80
2023/09/23 06:17:27;;;;;;;;;;;12.20;99.90;;;;;;7323396;19;9175;-80
2023/09/23 06:19:56;;;;;;;;;;;12.20;99.90;;;;;;7326594;19;10291;-80
2023/09/23 06:22:28;;;;;;;;;;;12.10;99.90;;;;;;7326515;19;9115;-80
2023/09/23 06:24:58;;;;;;;;;;;12.20;99.90;;;;;;7326088;19;9479;-80
2023/09/23 06:27:27;;;;;;;;;;;12.20;99.90;;;;;;7324575;19;9479;-80
2023/09/23 06:29:56;;;;;;;;;;;12.20;99.90;;;;;;7321336;19;9239;-80
2023/09/23 06:32:25;;;;;;;;;;;12.20;99.90;;;;;;7321621;19;9242;-80
2023/09/23 06:34:54;;;;;;;;;;;12.20;99.90;;;;;;7323880;19;9179;-80
2023/09/23 06:37:23;;;;;;;;;;;12.30;99.90;;;;;;7322960;19;9255;-80
2023/09/23 06:39:54;;;;;;;;;;;12.20;99.90;;;;;;7323115;19;9181;-80
2023/09/23 06:42:23;;;;;;;;;;;12.20;99.90;;;;;;7323930;19;9270;-80
2023/09/23 06:44:52;;;;;;;;;;;12.40;99.90;;;;;;7324416;19;9200;-80
2023/09/23 06:47:21;;;;;;;;;;;12.60;99.90;;;;;;7322998;19;9190;-80
2023/09/23 06:49:50;;;;;;;;;;;12.70;99.90;;;;;;7325096;19;9316;-80
2023/09/23 06:52:19;;;;;;;;;;;12.70;99.90;;;;;;7322545;19;10656;-80
2023/09/23 06:54:49;;;;;;;;;;;12.80;99.90;;;;;;7324069;19;9461;-80
2023/09/23 06:57:20;;;;;;;;;;;13.00;99.90;;;;;;7323314;19;9293;-80
2023/09/23 06:59:50;;;;;;;;;;;13.10;99.90;;;;;;7323368;19;9609;-80
2023/09/23 07:02:19;;;;;;;;;;;13.10;99.90;;;;;;7321407;19;9270;-80
2023/09/23 07:04:49;;;;;;;;;;;13.30;99.90;;;;;;7323625;19;9118;-80
2023/09/23 07:07:18;;;;;;;;;;;13.50;99.90;;;;;;7325941;19;10221;-80
2023/09/23 07:09:47;;;;;;;;;;;13.40;99.90;;;;;;7325434;19;10165;-80
2023/09/23 07:12:16;;;;;;;;;;;13.60;99.90;;;;;;7324086;19;9950;-80
2023/09/23 07:14:49;;;;;;;;;;;13.60;99.90;;;;;;7325902;19;10351;-80
2023/09/23 07:17:18;;;;;;;;;;;13.70;99.90;;;;;;7325333;19;9241;-80
2023/09/23 07:19:49;;;;;;;;;;;13.70;99.90;;;;;;7323780;19;9173;-80
2023/09/23 07:22:18;;;;;;;;;;;13.80;99.90;;;;;;7323888;19;9295;-80
2023/09/23 07:24:47;;;;;;;;;;;13.80;99.90;;;;;;7323518;19;9186;-80
2023/09/23 07:27:16;;;;;;;;;;;13.90;99.90;;;;;;7323157;19;9182;-80
2023/09/23 07:29:47;;;;;;;;;;;14.00;99.90;;;;;;7319965;19;11416;-80
2023/09/23 07:32:16;;;;;;;;;;;14.10;99.90;;;;;;7322685;19;9304;-80
2023/09/23 07:34:46;;;;;;;;;;;14.20;99.90;;;;;;7322207;19;9246;-80
2023/09/23 07:37:14;;;;;;;;;;;14.30;99.90;;;;;;7320886;19;8995;-81
2023/09/23 07:39:44;;;;;;;;;;;14.20;99.90;;;;;;7322570;19;9271;-80
2023/09/23 07:42:13;;;;;;;;;;;14.20;99.90;;;;;;7321852;19;9300;-80
2023/09/23 07:44:42;;;;;;;;;;;14.30;99.90;;;;;;7320732;19;9209;-80
2023/09/23 07:47:14;;;;;;;;;;;14.20;99.90;;;;;;7321212;19;9170;-81
2023/09/23 07:49:43;;;;;;;;;;;14.20;99.90;;;;;;7322409;19;8944;-81
2023/09/23 07:52:12;;;;;;;;;;;14.40;99.90;;;;;;7321606;19;9214;-81
2023/09/23 07:54:41;;;;;;;;;;;14.60;99.90;;;;;;7320763;19;9198;-81
2023/09/23 07:57:10;;;;;;;;;;;14.80;99.90;;;;;;7318785;19;9135;-81
2023/09/23 07:59:39;;;;;;;;;;;14.90;99.90;;;;;;7316787;19;9307;-80
2023/09/23 08:02:08;;;;;;;;;;;14.90;99.90;;;;;;7321111;19;9182;-81
2023/09/23 08:04:40;;;;;;;;;;;14.90;99.90;;;;;;7321526;19;9448;-80
2023/09/23 08:07:09;;;;;;;;;;;15.00;99.90;;;;;;7320501;19;9242;-81
2023/09/23 08:09:40;;;;;;;;;;;15.00;99.90;;;;;;7320477;19;9252;-80
2023/09/23 08:12:09;;;;;;;;;;;15.20;99.90;;;;;;7320720;19;9306;-80
2023/09/23 08:14:38;;;;;;;;;;;15.30;99.90;;;;;;7320903;19;9740;-81
2023/09/23 08:17:07;;;;;;;;;;;15.30;99.90;;;;;;7321110;19;9283;-80
2023/09/23 08:19:36;;;;;;;;;;;15.40;99.90;;;;;;7321830;19;9190;-81
2023/09/23 08:22:08;;;;;;;;;;;15.50;99.90;;;;;;7319270;19;9107;-81
2023/09/23 08:24:37;;;;;;;;;;;15.50;99.90;;;;;;7322842;19;9170;-81
2023/09/23 08:27:06;;;;;;;;;;;15.60;99.90;;;;;;7324494;19;9495;-81
2023/09/23 08:29:36;;;;;;;;;;;15.60;99.90;;;;;;7323338;19;9469;-81
2023/09/23 08:32:05;;;;;;;;;;;15.70;99.90;;;;;;7327199;19;9181;-80
2023/09/23 08:34:34;;;;;;;;;;;15.80;99.90;;;;;;7328135;19;10450;-80
2023/09/23 08:37:03;;;;;;;;;;;15.80;99.90;;;;;;7327969;19;9392;-80
2023/09/23 08:39:35;;;;;;;;;;;15.80;99.90;;;;;;7327417;19;9213;-81
2023/09/23 08:42:07;;;;;;;;;;;15.80;99.90;;;;;;7327147;19;9222;-81
2023/09/23 08:44:37;;;;;;;;;;;15.80;99.90;;;;;;7326306;19;9270;-80
2023/09/23 08:47:08;;;;;;;;;;;15.90;99.90;;;;;;7324858;19;8944;-81
2023/09/23 08:49:39;;;;;;;;;;;16.00;99.90;;;;;;7327427;19;10320;-80
2023/09/23 08:52:09;;;;;;;;;;;16.10;99.90;;;;;;7327408;19;9449;-81
2023/09/23 08:55:03;;;;;;;;;;;16.30;99.90;;;;;;7324514;19;9272;-80
2023/09/23 08:57:33;;;;;;;;;;;16.20;99.90;;;;;;7325544;19;9552;-81
2023/09/23 09:00:07;;;;;;;;;;;16.30;99.90;;;;;;7325468;19;9714;-80
2023/09/23 09:02:36;;;;;;;;;;;16.40;99.90;;;;;;7326621;19;9491;-81
2023/09/23 09:05:05;;;;;;;;;;;16.40;99.90;;;;;;7325670;19;9470;-81
2023/09/23 09:07:35;;;;;;;;;;;16.50;99.90;;;;;;7326278;19;10680;-81
2023/09/23 09:10:28;;;;;;;;;;;16.70;99.90;;;;;;7324711;19;9544;-81
2023/09/23 09:12:58;;;;;;;;;;;16.90;99.90;;;;;;7325125;19;9277;-81
2023/09/23 09:15:27;;;;;;;;;;;17.00;99.90;;;;;;7326331;19;9245;-81
2023/09/23 09:17:56;;;;;;;;;;;16.90;99.90;;;;;;7325800;19;9262;-81
2023/09/23 09:20:25;;;;;;;;;;;17.10;99.90;;;;;;7326213;19;9225;-81
2023/09/23 09:22:54;;;;;;;;;;;17.40;99.90;;;;;;7323741;19;10416;-82
2023/09/23 09:25:23;;;;;;;;;;;17.70;99.90;;;;;;7323666;19;9539;-81
2023/09/23 09:27:55;;;;;;;;;;;17.70;99.90;;;;;;7325537;19;9552;-81
2023/09/23 09:30:25;;;;;;;;;;;18.00;99.90;;;;;;7326400;19;9242;-81
2023/09/23 09:33:00;;;;;;;;;;;18.20;99.90;;;;;;7325877;19;9800;-81
2023/09/23 09:35:30;;;;;;;;;;;18.50;99.90;;;;;;7323702;19;9578;-81
2023/09/23 09:38:07;;;;;;;;;;;18.50;99.90;;;;;;7323418;19;9565;-81
2023/09/23 09:40:36;;;;;;;;;;;18.60;99.90;;;;;;7324844;19;9480;-81
2023/09/23 09:43:10;;;;;;;;;;;18.60;99.90;;;;;;7325568;19;9199;-81
2023/09/23 09:45:42;;;;;;;;;;;18.40;99.90;;;;;;7324829;19;9200;-80
2023/09/23 09:48:12;;;;;;;;;;;18.50;99.90;;;;;;7324762;19;9207;-81
2023/09/23 09:50:42;;;;;;;;;;;18.50;99.90;;;;;;7324513;19;9461;-81
2023/09/23 09:53:12;;;;;;;;;;;18.40;99.90;;;;;;7325341;19;9241;-81
2023/09/23 09:55:41;;;;;;;;;;;18.20;99.90;;;;;;7322759;19;9253;-81
2023/09/23 09:58:14;;;;;;;;;;;18.10;99.90;;;;;;7324253;19;9317;-81
2023/09/23 10:00:44;;;;;;;;;;;18.10;99.90;;;;;;7325223;19;9448;-81
2023/09/23 10:03:15;;;;;;;;;;;18.00;99.90;;;;;;7324355;19;9225;-81
2023/09/23 10:05:46;;;;;;;;;;;18.10;99.90;;;;;;7325839;19;9210;-81
2023/09/23 10:08:17;;;;;;;;;;;18.30;99.90;;;;;;7324147;19;9208;-81
2023/09/23 10:10:49;;;;;;;;;;;18.40;99.90;;;;;;7324216;19;9461;-81
2023/09/23 10:13:42;;;;;;;;;;;18.70;99.90;;;;;;7322938;19;9252;-82
2023/09/23 10:16:17;;;;;;;;;;;18.80;99.90;;;;;;7323146;19;9284;-82
2023/09/23 10:18:46;;;;;;;;;;;18.90;99.90;;;;;;7324405;19;9131;-81
2023/09/23 10:21:27;;;;;;;;;;;18.90;99.90;;;;;;7323830;19;9282;-81
2023/09/23 10:23:59;;;;;;;;;;;19.20;99.90;;;;;;7324893;19;9205;-81
2023/09/23 10:26:31;;;;;;;;;;;19.10;99.90;;;;;;7321545;19;9129;-81
2023/09/23 10:29:06;;;;;;;;;;;19.20;99.90;;;;;;7323489;19;10352;-81
2023/09/23 10:31:37;;;;;;;;;;;19.20;99.90;;;;;;7324203;19;9324;-81
2023/09/23 10:34:08;;;;;;;;;;;19.20;99.90;;;;;;7325045;19;9397;-81
2023/09/23 10:36:37;;;;;;;;;;;19.30;99.90;;;;;;7323400;19;9195;-81
2023/09/23 10:39:09;;;;;;;;;;;19.50;99.90;;;;;;7322664;19;9179;-81
2023/09/23 10:41:40;;;;;;;;;;;19.60;99.90;;;;;;7324405;19;9600;-81
2023/09/23 10:44:11;;;;;;;;;;;19.60;99.90;;;;;;7324848;19;9481;-81
2023/09/23 10:46:41;;;;;;;;;;;19.50;99.90;;;;;;7325691;19;9352;-81
2023/09/23 10:49:13;;;;;;;;;;;19.60;99.90;;;;;;7323122;19;9151;-81
2023/09/23 10:51:43;;;;;;;;;;;19.50;99.90;;;;;;7325438;19;9293;-81
2023/09/23 10:54:16;;;;;;;;;;;19.40;99.90;;;;;;7322802;19;9387;-81
2023/09/23 10:56:46;;;;;;;;;;;19.20;99.90;;;;;;7318078;19;9398;-81
2023/09/23 10:59:17;;;;;;;;;;;19.20;99.90;;;;;;7322255;19;9245;-81
2023/09/23 11:01:47;;;;;;;;;;;19.00;99.90;;;;;;7321728;19;9450;-81
2023/09/23 11:04:16;;;;;;;;;;;18.90;99.90;;;;;;7323768;19;9290;-81
2023/09/23 11:06:45;;;;;;;;;;;18.80;99.90;;;;;;7322556;19;9462;-82
2023/09/23 11:09:14;;;;;;;;;;;18.80;99.90;;;;;;7322242;19;9404;-81
2023/09/23 11:11:44;;;;;;;;;;;19.00;99.90;;;;;;7321963;19;9477;-81
2023/09/23 11:14:17;;;;;;;;;;;19.10;99.90;;;;;;7322717;19;9233;-82
2023/09/23 11:16:49;;;;;;;;;;;19.30;99.90;;;;;;7322194;19;9587;-81
2023/09/23 11:19:21;;;;;;;;;;;19.40;99.90;;;;;;7322551;19;10155;-81
2023/09/23 11:21:50;;;;;;;;;;;19.60;99.90;;;;;;7322542;19;9185;-81
2023/09/23 11:24:20;;;;;;;;;;;19.70;99.90;;;;;;7323249;19;9330;-82
2023/09/23 11:26:50;;;;;;;;;;;19.60;99.90;;;;;;7318985;19;9445;-81
2023/09/23 11:29:21;;;;;;;;;;;19.60;99.90;;;;;;7321726;19;9196;-82
2023/09/23 11:31:50;;;;;;;;;;;19.60;99.90;;;;;;7321614;19;9283;-81
2023/09/23 11:34:19;;;;;;;;;;;19.30;99.90;;;;;;7318971;19;8997;-81
2023/09/23 11:36:48;;;;;;;;;;;19.20;99.90;;;;;;7322446;19;9474;-81
2023/09/23 11:39:17;;;;;;;;;;;19.20;99.90;;;;;;7322143;19;9190;-81
2023/09/23 11:41:46;;;;;;;;;;;19.30;99.90;;;;;;7322421;19;9567;-82
2023/09/23 11:44:15;;;;;;;;;;;19.30;99.90;;;;;;7320308;19;9349;-82
2023/09/23 11:46:46;;;;;;;;;;;19.30;99.90;;;;;;7321413;19;9404;-81
2023/09/23 11:49:15;;;;;;;;;;;19.20;99.90;;;;;;7321161;19;9450;-81
2023/09/23 11:51:45;;;;;;;;;;;19.10;99.90;;;;;;7321821;19;9289;-81
2023/09/23 11:54:14;;;;;;;;;;;19.00;99.90;;;;;;7322492;19;9353;-81
2023/09/23 11:56:43;;;;;;;;;;;19.00;99.90;;;;;;7319098;19;9269;-82
2023/09/23 11:59:13;;;;;;;;;;;19.10;99.90;;;;;;7318992;19;9521;-81
2023/09/23 12:01:42;;;;;;;;;;;19.00;99.90;;;;;;7320587;19;9007;-81
2023/09/23 12:04:13;;;;;;;;;;;19.00;99.90;;;;;;7322194;19;9266;-82
2023/09/23 12:06:45;;;;;;;;;;;19.10;99.90;;;;;;7320914;19;9386;-81
2023/09/23 12:09:14;;;;;;;;;;;19.10;99.90;;;;;;7321507;19;9516;-81
2023/09/23 12:11:43;;;;;;;;;;;19.00;99.90;;;;;;7321733;19;9536;-82
2023/09/23 12:14:14;;;;;;;;;;;19.00;99.90;;;;;;7321331;19;9427;-82
2023/09/23 12:16:43;;;;;;;;;;;19.10;99.90;;;;;;7321429;19;8944;-82
2023/09/23 12:19:16;;;;;;;;;;;19.30;99.90;;;;;;7319984;19;8944;-81
2023/09/23 12:21:45;;;;;;;;;;;19.40;99.90;;;;;;7321827;19;9131;-81
2023/09/23 12:24:14;;;;;;;;;;;19.60;99.90;;;;;;7320780;19;9662;-81
2023/09/23 12:26:43;;;;;;;;;;;19.70;99.90;;;;;;7318046;19;9464;-81
2023/09/23 12:29:12;;;;;;;;;;;19.60;99.90;;;;;;7321003;19;9225;-81
2023/09/23 12:31:40;;;;;;;;;;;19.60;99.90;;;;;;7321836;19;9216;-82
2023/09/23 12:34:09;;;;;;;;;;;19.50;99.90;;;;;;7321336;19;9170;-81
2023/09/23 12:36:41;;;;;;;;;;;19.40;99.90;;;;;;7321177;19;9426;-82
2023/09/23 12:39:08;;;;;;;;;;;19.40;99.90;;;;;;7321191;19;9254;-82
2023/09/23 12:41:36;;;;;;;;;;;19.30;99.90;;;;;;7322997;19;9552;-82
2023/09/23 12:44:06;;;;;;;;;;;19.20;99.90;;;;;;7322996;19;9447;-81
2023/09/23 12:46:35;;;;;;;;;;;19.00;99.90;;;;;;7321745;19;10516;-82
2023/09/23 12:49:04;;;;;;;;;;;18.70;99.90;;;;;;7324244;19;9537;-81
2023/09/23 12:51:33;;;;;;;;;;;18.40;99.90;;;;;;7321486;19;9258;-80
2023/09/23 12:54:06;;;;;;;;;;;18.50;99.90;;;;;;7320882;19;10262;-81
2023/09/23 12:56:35;;;;;;;;;;;18.00;99.90;;;;;;7316082;19;9388;-81
2023/09/23 12:59:05;;;;;;;;;;;17.90;99.90;;;;;;7319826;19;10482;-80
2023/09/23 13:01:58;;;;;;;;;;;17.80;99.90;;;;;;7321516;19;9170;-80
2023/09/23 13:04:28;;;;;;;;;;;17.80;99.90;;;;;;7321513;19;9417;-81
2023/09/23 13:06:57;;;;;;;;;;;17.80;99.90;;;;;;7320790;19;9139;-80
2023/09/23 13:09:29;;;;;;;;;;;17.70;99.90;;;;;;7319176;19;9435;-80
2023/09/23 13:11:58;;;;;;;;;;;17.60;99.90;;;;;;7325259;19;9182;-81
2023/09/23 13:14:27;;;;;;;;;;;17.60;99.90;;;;;;7325288;19;9512;-81
2023/09/23 13:16:56;;;;;;;;;;;17.80;99.90;;;;;;7325520;19;9245;-80
2023/09/23 13:19:25;;;;;;;;;;;17.80;99.90;;;;;;7324184;19;10977;-81
2023/09/23 13:21:54;;;;;;;;;;;17.90;99.90;;;;;;7325076;19;9257;-80
2023/09/23 13:24:46;;;;;;;;;;;18.00;99.90;;;;;;7322979;19;9643;-80
2023/09/23 13:27:15;;;;;;;;;;;18.20;99.90;;;;;;7323607;19;9455;-80
2023/09/23 13:29:44;;;;;;;;;;;18.20;99.90;;;;;;7326500;19;9232;-81
2023/09/23 13:32:13;;;;;;;;;;;18.10;99.90;;;;;;7325750;19;9190;-81
2023/09/23 13:34:43;;;;;;;;;;;17.90;99.90;;;;;;7325648;19;10209;-81
2023/09/23 13:37:12;;;;;;;;;;;17.90;99.90;;;;;;7326273;19;9273;-81
2023/09/23 13:39:41;;;;;;;;;;;18.00;99.90;;;;;;7326233;19;8945;-81
2023/09/23 13:42:13;;;;;;;;;;;18.10;99.90;;;;;;7324905;19;10566;-80
2023/09/23 13:44:43;;;;;;;;;;;18.20;99.90;;;;;;7323588;19;10490;-81
2023/09/23 13:47:12;;;;;;;;;;;18.30;99.90;;;;;;7325383;19;9271;-80
2023/09/23 13:49:41;;;;;;;;;;;18.40;99.90;;;;;;7325084;19;9248;-81
2023/09/23 13:52:10;;;;;;;;;;;18.60;99.90;;;;;;7325151;19;9165;-81
2023/09/23 13:54:39;;;;;;;;;;;18.80;99.90;;;;;;7323792;19;9194;-81
2023/09/23 13:57:08;;;;;;;;;;;18.90;99.90;;;;;;7322154;19;9405;-81
2023/09/23 14:00:00;;;;;;;;;;;19.00;99.90;;;;;;7321846;19;9348;-80
2023/09/23 14:02:29;;;;;;;;;;;19.00;99.90;;;;;;7324039;19;8944;-81
2023/09/23 14:04:58;;;;;;;;;;;19.00;99.90;;;;;;7324980;19;10296;-81
2023/09/23 14:07:27;;;;;;;;;;;18.90;99.90;;;;;;7325314;19;9242;-81
2023/09/23 14:09:56;;;;;;;;;;;18.90;99.90;;;;;;7323729;19;9127;-81
2023/09/23 14:12:26;;;;;;;;;;;18.80;99.90;;;;;;7324825;19;10139;-81
2023/09/23 14:14:55;;;;;;;;;;;18.90;99.90;;;;;;7324953;19;9306;-81
2023/09/23 14:17:27;;;;;;;;;;;19.10;99.90;;;;;;7323613;19;11390;-81
2023/09/23 14:19:55;;;;;;;;;;;19.00;99.90;;;;;;7324283;19;10326;-81
2023/09/23 14:22:26;;;;;;;;;;;18.90;99.90;;;;;;7322780;19;9390;-81
2023/09/23 14:24:55;;;;;;;;;;;19.00;99.90;;;;;;7322598;19;9493;-81
2023/09/23 14:27:24;;;;;;;;;;;19.10;99.90;;;;;;7322510;19;11377;-82
2023/09/23 14:29:53;;;;;;;;;;;19.00;99.90;;;;;;7324375;19;9488;-82
2023/09/23 14:32:26;;;;;;;;;;;18.80;99.90;;;;;;7324491;19;9297;-81
2023/09/23 14:34:55;;;;;;;;;;;18.60;99.90;;;;;;7323382;19;9326;-81
2023/09/23 14:37:24;;;;;;;;;;;18.50;99.90;;;;;;7323656;19;9202;-82
2023/09/23 14:39:53;;;;;;;;;;;18.30;99.90;;;;;;7323188;19;9250;-81
2023/09/23 14:42:42;;;;;;;;;;;18.30;99.90;;;;;;7322361;19;9400;-81
2023/09/23 14:45:11;;;;;;;;;;;18.30;99.90;;;;;;7324716;19;9310;-82
2023/09/23 14:47:43;;;;;;;;;;;17.90;99.90;;;;;;7324129;19;9260;-81
2023/09/23 14:50:13;;;;;;;;;;;17.90;99.90;;;;;;7323051;19;9262;-82